createdAt,value
2019-05-16T00:01:34.833Z,7.00
2019-05-16T00:04:05.170Z,6.90
2019-05-16T00:06:35.322Z,6.90
2019-05-16T00:09:07.988Z,6.90
2019-05-16T00:11:38.550Z,7.00
2019-05-16T00:14:09.766Z,6.90
2019-05-16T00:16:39.848Z,6.90
2019-05-16T00:19:09.760Z,6.90
2019-05-16T00:21:39.614Z,6.80
2019-05-16T00:24:09.803Z,6.80
2019-05-16T00:29:38.337Z,6.70
2019-05-16T00:32:08.740Z,6.60
2019-05-16T00:34:38.939Z,6.60
2019-05-16T00:37:09.116Z,6.60
2019-05-16T00:39:39.262Z,6.60
2019-05-16T00:42:09.430Z,6.50
2019-05-16T00:44:39.626Z,6.40
2019-05-16T00:47:09.517Z,6.40
2019-05-16T00:49:39.355Z,6.40
2019-05-16T00:52:09.654Z,6.40
2019-05-16T00:54:39.845Z,6.30
2019-05-16T00:57:09.769Z,6.30
2019-05-16T00:59:40.179Z,6.30
2019-05-16T01:02:18.179Z,6.30
2019-05-16T01:04:52.006Z,6.30
2019-05-16T01:07:21.829Z,6.30
2019-05-16T01:09:51.734Z,6.20
2019-05-16T01:12:21.604Z,6.00
2019-05-16T01:14:51.737Z,6.00
2019-05-16T01:17:22.006Z,5.90
2019-05-16T01:19:52.254Z,5.90
2019-05-16T01:22:22.405Z,6.00
2019-05-16T01:24:52.511Z,5.90
2019-05-16T01:27:24.407Z,5.90
2019-05-16T01:29:54.547Z,5.90
2019-05-16T01:32:24.553Z,5.80
2019-05-16T01:34:54.704Z,5.70
2019-05-16T01:37:24.549Z,5.60
2019-05-16T01:39:54.836Z,5.50
2019-05-16T01:42:24.956Z,5.50
2019-05-16T01:44:55.220Z,5.50
2019-05-16T01:47:25.298Z,5.50
2019-05-16T01:49:57.884Z,5.50
2019-05-16T01:52:29.066Z,5.50
2019-05-16T01:54:59.075Z,5.50
2019-05-16T01:57:29.015Z,5.50
2019-05-16T01:59:59.110Z,5.40
2019-05-16T02:02:32.272Z,5.40
2019-05-16T02:05:02.376Z,5.40
2019-05-16T02:07:32.704Z,5.40
2019-05-16T02:10:03.114Z,5.50
2019-05-16T02:12:33.223Z,5.40
2019-05-16T02:15:03.475Z,5.40
2019-05-16T02:17:33.704Z,5.30
2019-05-16T02:20:04.869Z,5.30
2019-05-16T02:22:35.047Z,5.30
2019-05-16T02:25:07.744Z,5.30
2019-05-16T02:27:40.932Z,5.30
2019-05-16T02:30:12.607Z,5.30
2019-05-16T02:32:42.196Z,5.30
2019-05-16T02:35:12.407Z,5.30
2019-05-16T02:37:42.768Z,5.40
2019-05-16T02:40:14.586Z,5.40
2019-05-16T02:42:45.446Z,5.40
2019-05-16T02:45:16.561Z,5.40
2019-05-16T02:47:46.792Z,5.40
2019-05-16T02:50:16.768Z,5.30
2019-05-16T02:52:51.740Z,5.30
2019-05-16T02:55:21.727Z,5.40
2019-05-16T02:57:51.866Z,5.40
2019-05-16T03:00:42.006Z,5.50
2019-05-16T03:03:11.992Z,5.50
2019-05-16T03:05:43.003Z,5.60
2019-05-16T03:08:13.583Z,5.60
2019-05-16T03:10:43.635Z,5.70
2019-05-16T03:13:15.005Z,5.70
2019-05-16T03:15:47.496Z,5.80
2019-05-16T03:18:21.441Z,5.80
2019-05-16T03:20:52.695Z,5.90
2019-05-16T03:23:25.762Z,5.90
2019-05-16T03:25:55.582Z,5.90
2019-05-16T03:28:25.723Z,5.90
2019-05-16T03:30:55.583Z,5.80
2019-05-16T03:33:32.755Z,5.70
2019-05-16T03:35:57.328Z,5.60
2019-05-16T03:38:27.375Z,5.60
2019-05-16T03:41:00.769Z,5.50
2019-05-16T03:43:30.954Z,5.60
2019-05-16T03:46:02.493Z,5.60
2019-05-16T03:48:32.780Z,5.70
2019-05-16T03:51:02.575Z,5.60
2019-05-16T03:53:32.842Z,5.60
2019-05-16T03:59:10.945Z,5.50
2019-05-16T04:01:41.147Z,5.30
2019-05-16T04:04:12.080Z,5.20
2019-05-16T04:06:42.415Z,5.10
2019-05-16T04:09:12.730Z,5.00
2019-05-16T04:11:43.124Z,5.10
2019-05-16T04:14:14.017Z,5.10
2019-05-16T04:16:44.177Z,5.20
2019-05-16T04:19:14.469Z,5.30
2019-05-16T04:21:44.581Z,5.30
2019-05-16T04:24:14.688Z,5.40
2019-05-16T04:26:44.605Z,5.40
2019-05-16T04:29:14.907Z,5.40
2019-05-16T04:31:44.810Z,5.50
2019-05-16T04:34:15.127Z,5.50
2019-05-16T04:36:45.438Z,5.60
2019-05-16T04:39:15.378Z,5.60
2019-05-16T04:41:45.177Z,5.70
2019-05-16T04:44:15.286Z,5.60
2019-05-16T04:46:45.451Z,5.70
2019-05-16T04:49:15.357Z,5.70
2019-05-16T04:51:45.286Z,5.80
2019-05-16T04:54:15.369Z,5.80
2019-05-16T04:56:45.600Z,5.80
2019-05-16T04:59:17.091Z,5.90
2019-05-16T05:01:51.007Z,5.90
2019-05-16T05:04:21.190Z,5.90
2019-05-16T05:06:55.186Z,6.00
2019-05-16T05:09:23.439Z,6.10
2019-05-16T05:11:53.859Z,6.10
2019-05-16T05:14:23.669Z,6.10
2019-05-16T05:16:53.766Z,6.10
2019-05-16T05:19:23.916Z,6.10
2019-05-16T05:21:54.126Z,6.10
2019-05-16T05:24:23.996Z,6.20
2019-05-16T05:26:54.222Z,6.30
2019-05-16T05:29:24.887Z,6.40
2019-05-16T05:31:55.870Z,6.50
2019-05-16T05:34:25.978Z,6.60
2019-05-16T05:36:56.205Z,6.70
2019-05-16T05:39:26.470Z,6.80
2019-05-16T05:41:56.734Z,7.00
2019-05-16T05:44:27.080Z,7.10
2019-05-16T05:46:56.984Z,7.20
2019-05-16T05:49:27.229Z,7.30
2019-05-16T05:51:57.399Z,7.40
2019-05-16T05:54:27.454Z,7.50
2019-05-16T05:56:57.582Z,7.60
2019-05-16T05:59:27.740Z,7.60
2019-05-16T06:02:00.547Z,7.80
2019-05-16T06:04:30.498Z,7.90
2019-05-16T06:07:01.392Z,8.10
2019-05-16T06:09:33.143Z,8.20
2019-05-16T06:12:03.209Z,8.30
2019-05-16T06:14:33.020Z,8.40
2019-05-16T06:17:03.240Z,8.50
2019-05-16T06:19:33.347Z,8.60
2019-05-16T06:22:03.718Z,8.70
2019-05-16T06:24:33.594Z,8.80
2019-05-16T06:27:03.506Z,9.00
2019-05-16T06:29:33.672Z,9.10
2019-05-16T06:32:03.842Z,9.20
2019-05-16T06:34:34.080Z,9.30
2019-05-16T06:37:04.315Z,9.40
2019-05-16T06:39:41.849Z,9.60
2019-05-16T06:42:06.456Z,9.60
2019-05-16T06:44:36.374Z,9.70
2019-05-16T06:47:16.950Z,9.80
2019-05-16T06:49:57.552Z,9.90
2019-05-16T06:52:33.780Z,10.00
2019-05-16T06:55:05.651Z,10.10
2019-05-16T06:57:35.663Z,10.20
2019-05-16T07:00:07.862Z,10.20
2019-05-16T07:02:40.592Z,10.20
2019-05-16T07:05:10.352Z,10.30
2019-05-16T07:07:40.786Z,10.40
2019-05-16T07:10:10.880Z,10.50
2019-05-16T07:12:41.694Z,10.60
2019-05-16T07:15:12.716Z,10.70
2019-05-16T07:17:42.966Z,10.80
2019-05-16T07:20:13.670Z,10.80
2019-05-16T07:22:43.701Z,11.00
2019-05-16T07:25:14.111Z,11.00
2019-05-16T07:27:44.195Z,11.20
2019-05-16T07:30:14.834Z,11.30
2019-05-16T07:32:45.006Z,11.50
2019-05-16T07:35:15.397Z,11.60
2019-05-16T07:37:45.600Z,11.70
2019-05-16T07:40:22.749Z,11.80
2019-05-16T07:42:47.513Z,11.80
2019-05-16T07:45:20.193Z,11.80
2019-05-16T07:47:51.028Z,11.80
2019-05-16T07:50:21.174Z,11.90
2019-05-16T07:52:51.335Z,12.00
2019-05-16T07:55:21.601Z,12.00
2019-05-16T07:57:51.707Z,12.10
2019-05-16T08:00:33.335Z,12.30
2019-05-16T08:02:54.918Z,12.30
2019-05-16T08:05:25.039Z,12.50
2019-05-16T08:07:55.276Z,12.70
2019-05-16T08:10:38.139Z,12.80
2019-05-16T08:13:03.076Z,12.90
2019-05-16T08:15:30.396Z,13.10
2019-05-16T08:18:03.119Z,13.20
2019-05-16T08:20:33.323Z,13.30
2019-05-16T08:23:03.626Z,13.50
2019-05-16T08:25:33.956Z,13.50
2019-05-16T08:28:04.232Z,13.70
2019-05-16T08:30:34.647Z,13.90
2019-05-16T08:33:05.099Z,14.20
2019-05-16T08:35:35.314Z,14.30
2019-05-16T08:38:05.615Z,14.40
2019-05-16T08:40:59.561Z,14.60
2019-05-16T08:43:07.555Z,14.80
2019-05-16T08:45:41.567Z,14.90
2019-05-16T08:48:11.533Z,14.90
2019-05-16T08:50:46.662Z,15.00
2019-05-16T08:53:13.931Z,15.10
2019-05-16T08:55:44.262Z,15.20
2019-05-16T08:58:14.428Z,15.30
2019-05-16T09:00:44.796Z,15.50
2019-05-16T09:03:15.003Z,15.40
2019-05-16T09:05:45.293Z,15.40
2019-05-16T09:08:15.595Z,15.50
2019-05-16T09:10:59.824Z,15.70
2019-05-16T09:13:17.812Z,15.90
2019-05-16T09:15:48.338Z,16.00
2019-05-16T09:18:22.478Z,16.10
2019-05-16T09:20:52.635Z,16.20
2019-05-16T09:23:22.901Z,16.30
2019-05-16T09:25:52.784Z,16.40
2019-05-16T09:28:22.732Z,16.40
2019-05-16T09:30:52.847Z,16.20
2019-05-16T09:33:23.079Z,16.10
2019-05-16T09:35:53.299Z,16.10
2019-05-16T09:38:23.906Z,16.00
2019-05-16T09:40:56.774Z,15.90
2019-05-16T09:43:28.121Z,15.90
2019-05-16T09:46:06.949Z,15.70
2019-05-16T09:48:30.678Z,15.90
2019-05-16T09:51:00.892Z,16.10
2019-05-16T09:53:32.132Z,16.10
2019-05-16T09:56:02.529Z,16.20
2019-05-16T09:58:32.794Z,16.40
2019-05-16T10:01:03.512Z,16.10
2019-05-16T10:03:34.263Z,15.90
2019-05-16T10:06:04.361Z,16.00
2019-05-16T10:08:34.415Z,16.20
2019-05-16T10:11:06.285Z,16.60
2019-05-16T10:13:37.677Z,17.00
2019-05-16T10:16:08.185Z,17.00
2019-05-16T10:18:38.326Z,17.20
2019-05-16T10:21:08.509Z,17.20
2019-05-16T10:23:39.728Z,17.20
2019-05-16T10:26:09.988Z,16.90
2019-05-16T10:28:40.168Z,16.90
2019-05-16T10:31:10.443Z,17.20
2019-05-16T10:33:40.768Z,17.40
2019-05-16T10:36:12.284Z,17.80
2019-05-16T10:38:43.954Z,18.10
2019-05-16T10:41:14.121Z,18.50
2019-05-16T10:43:44.523Z,18.50
2019-05-16T10:46:17.440Z,18.40
2019-05-16T10:48:46.893Z,18.40
2019-05-16T10:51:17.213Z,18.60
2019-05-16T10:54:13.029Z,18.80
2019-05-16T10:56:19.529Z,19.00
2019-05-16T10:59:14.173Z,19.00
2019-05-16T11:01:27.534Z,18.80
2019-05-16T11:03:53.182Z,18.70
2019-05-16T11:06:25.783Z,18.60
2019-05-16T11:08:57.175Z,18.60
2019-05-16T11:11:27.482Z,18.70
2019-05-16T11:13:57.831Z,18.70
2019-05-16T11:16:28.133Z,18.80
2019-05-16T11:19:13.819Z,18.90
2019-05-16T11:21:30.191Z,19.10
2019-05-16T11:24:00.209Z,19.20
2019-05-16T11:26:30.491Z,19.20
2019-05-16T11:29:00.834Z,19.20
2019-05-16T11:31:31.199Z,19.20
2019-05-16T11:34:01.555Z,19.50
2019-05-16T11:36:31.958Z,19.70
2019-05-16T11:39:02.093Z,19.40
2019-05-16T11:41:34.073Z,19.10
2019-05-16T11:44:06.584Z,18.90
2019-05-16T11:46:37.541Z,18.90
2019-05-16T11:49:07.829Z,19.10
2019-05-16T11:51:38.370Z,19.20
2019-05-16T11:54:08.581Z,19.20
2019-05-16T11:56:38.867Z,19.20
2019-05-16T11:59:08.808Z,19.30
2019-05-16T12:01:39.057Z,19.60
2019-05-16T12:04:09.461Z,19.80
2019-05-16T12:06:39.739Z,19.90
2019-05-16T12:09:10.255Z,20.10
2019-05-16T12:11:40.336Z,20.50
2019-05-16T12:14:10.674Z,20.90
2019-05-16T12:16:42.001Z,21.40
2019-05-16T12:19:12.336Z,21.80
2019-05-16T12:21:42.581Z,21.50
2019-05-16T12:24:27.934Z,21.20
2019-05-16T12:26:44.414Z,21.50
2019-05-16T12:29:17.126Z,21.60
2019-05-16T12:31:55.390Z,21.80
2019-05-16T12:34:18.760Z,22.20
2019-05-16T12:36:49.113Z,22.40
2019-05-16T12:39:19.350Z,22.40
2019-05-16T12:41:49.735Z,22.40
2019-05-16T12:44:22.371Z,22.40
2019-05-16T12:46:53.878Z,21.70
2019-05-16T12:49:23.960Z,21.70
2019-05-16T12:51:54.207Z,21.40
2019-05-16T12:54:24.151Z,21.30
2019-05-16T12:56:54.247Z,21.00
2019-05-16T12:59:26.648Z,20.60
2019-05-16T13:01:57.640Z,20.60
2019-05-16T13:04:28.205Z,20.60
2019-05-16T13:06:58.721Z,20.60
2019-05-16T13:09:28.712Z,20.70
2019-05-16T13:11:58.917Z,21.10
2019-05-16T13:14:29.147Z,21.30
2019-05-16T13:16:59.334Z,21.00
2019-05-16T13:19:32.794Z,20.90
2019-05-16T13:22:01.556Z,20.80
2019-05-16T13:24:31.412Z,21.00
2019-05-16T13:27:01.219Z,21.00
2019-05-16T13:29:31.386Z,21.10
2019-05-16T13:32:01.713Z,20.90
2019-05-16T13:34:31.714Z,21.00
2019-05-16T13:37:02.189Z,21.00
2019-05-16T13:39:32.595Z,21.10
2019-05-16T13:42:02.817Z,21.50
2019-05-16T13:44:33.015Z,21.90
2019-05-16T13:47:03.057Z,22.50
2019-05-16T13:49:33.277Z,23.00
2019-05-16T13:52:03.592Z,23.50
2019-05-16T13:54:36.249Z,23.60
2019-05-16T13:57:08.424Z,23.30
2019-05-16T13:59:38.643Z,23.10
2019-05-16T14:02:08.709Z,22.40
2019-05-16T14:04:39.184Z,22.10
2019-05-16T14:07:13.039Z,22.10
2019-05-16T14:09:43.463Z,22.20
2019-05-16T14:12:14.640Z,22.30
2019-05-16T14:14:47.644Z,22.40
2019-05-16T14:17:17.843Z,22.50
2019-05-16T14:19:48.407Z,22.20
2019-05-16T14:22:18.300Z,22.20
2019-05-16T14:24:48.510Z,22.30
2019-05-16T14:27:18.549Z,22.40
2019-05-16T14:29:48.739Z,22.40
2019-05-16T14:32:20.083Z,22.80
2019-05-16T14:34:51.745Z,23.20
2019-05-16T14:37:21.963Z,23.40
2019-05-16T14:39:53.194Z,23.50
2019-05-16T14:42:23.672Z,23.50
2019-05-16T14:45:06.520Z,23.50
2019-05-16T14:47:27.221Z,23.50
2019-05-16T14:49:57.518Z,23.20
2019-05-16T14:52:27.894Z,23.00
2019-05-16T14:54:58.864Z,23.10
2019-05-16T14:57:29.060Z,23.00
2019-05-16T14:59:59.105Z,22.90
2019-05-16T15:02:29.340Z,22.70
2019-05-16T15:04:59.381Z,22.70
2019-05-16T15:07:29.648Z,22.70
2019-05-16T15:10:01.029Z,22.50
2019-05-16T15:12:31.884Z,22.20
2019-05-16T15:15:15.840Z,21.90
2019-05-16T15:17:33.974Z,21.80
2019-05-16T15:20:08.565Z,21.60
2019-05-16T15:22:38.724Z,21.50
2019-05-16T15:25:09.237Z,21.10
2019-05-16T15:27:39.218Z,21.00
2019-05-16T15:30:12.032Z,21.10
2019-05-16T15:32:42.186Z,21.00
2019-05-16T15:35:12.605Z,20.90
2019-05-16T15:37:42.966Z,20.90
2019-05-16T15:40:13.661Z,21.00
2019-05-16T15:42:47.911Z,20.90
2019-05-16T15:45:34.374Z,20.80
2019-05-16T15:47:51.437Z,20.40
2019-05-16T15:50:21.663Z,20.50
2019-05-16T15:52:51.983Z,20.60
2019-05-16T15:55:22.271Z,20.60
2019-05-16T15:57:52.736Z,20.60
2019-05-16T16:00:47.507Z,20.60
2019-05-16T16:03:17.594Z,20.50
2019-05-16T16:05:47.708Z,20.40
2019-05-16T16:08:18.427Z,20.30
2019-05-16T16:10:49.941Z,20.20
2019-05-16T16:13:20.257Z,19.70
2019-05-16T16:15:54.462Z,19.50
2019-05-16T16:18:23.301Z,19.50
2019-05-16T16:20:53.650Z,19.30
2019-05-16T16:23:27.053Z,19.30
2019-05-16T16:25:59.634Z,19.20
2019-05-16T16:28:28.885Z,19.20
2019-05-16T16:30:59.085Z,19.20
2019-05-16T16:33:30.153Z,19.30
2019-05-16T16:36:00.571Z,19.20
2019-05-16T16:38:30.848Z,19.10
2019-05-16T16:41:00.924Z,19.10
2019-05-16T16:43:31.041Z,19.00
2019-05-16T16:46:08.689Z,18.90
2019-05-16T16:48:32.831Z,18.70
2019-05-16T16:51:03.106Z,18.60
2019-05-16T16:53:33.301Z,18.40
2019-05-16T16:56:03.389Z,18.30
2019-05-16T16:58:33.663Z,18.10
2019-05-16T17:01:06.982Z,18.00
2019-05-16T17:03:36.345Z,17.90
2019-05-16T17:06:06.767Z,17.80
2019-05-16T17:08:37.648Z,17.70
2019-05-16T17:11:07.994Z,17.60
2019-05-16T17:13:37.864Z,17.50
2019-05-16T17:16:21.997Z,17.40
2019-05-16T17:18:39.932Z,17.40
2019-05-16T17:21:10.286Z,17.60
2019-05-16T17:23:40.562Z,17.50
2019-05-16T17:26:10.841Z,17.50
2019-05-16T17:28:41.140Z,17.50
2019-05-16T17:31:11.151Z,17.60
2019-05-16T17:33:41.538Z,17.60
2019-05-16T17:36:11.523Z,17.70
2019-05-16T17:38:41.566Z,17.70
2019-05-16T17:41:11.727Z,17.60
2019-05-16T17:43:42.007Z,17.50
2019-05-16T17:46:12.154Z,17.40
2019-05-16T17:48:42.412Z,17.40
2019-05-16T17:51:12.539Z,17.40
2019-05-16T17:53:42.873Z,17.40
2019-05-16T17:56:13.118Z,17.30
2019-05-16T17:58:43.493Z,17.30
2019-05-16T18:01:13.802Z,17.30
2019-05-16T18:03:44.155Z,17.30
2019-05-16T18:06:16.824Z,17.30
2019-05-16T18:08:46.816Z,17.30
2019-05-16T18:11:17.953Z,17.30
2019-05-16T18:13:48.099Z,17.20
2019-05-16T18:16:18.498Z,17.00
2019-05-16T18:18:48.652Z,17.00
2019-05-16T18:21:18.977Z,17.00
2019-05-16T18:23:49.005Z,17.00
2019-05-16T18:26:19.038Z,17.00
2019-05-16T18:28:49.280Z,16.90
2019-05-16T18:31:19.582Z,16.80
2019-05-16T18:33:49.784Z,16.70
2019-05-16T18:36:20.992Z,16.60
2019-05-16T18:38:51.108Z,16.60
2019-05-16T18:41:21.180Z,16.50
2019-05-16T18:43:51.170Z,16.50
2019-05-16T18:46:22.374Z,16.50
2019-05-16T18:48:52.621Z,16.50
2019-05-16T18:51:23.819Z,16.50
2019-05-16T18:53:54.085Z,16.50
2019-05-16T18:56:24.282Z,16.50
2019-05-16T18:58:54.228Z,16.50
2019-05-16T19:01:26.761Z,16.40
2019-05-16T19:03:57.638Z,16.40
2019-05-16T19:06:28.126Z,16.40
2019-05-16T19:08:59.432Z,16.50
2019-05-16T19:11:29.850Z,16.40
2019-05-16T19:13:59.754Z,16.50
2019-05-16T19:16:29.879Z,16.50
2019-05-16T19:18:59.828Z,16.40
2019-05-16T19:21:30.072Z,16.30
2019-05-16T19:24:00.048Z,16.30
2019-05-16T19:26:30.438Z,16.20
2019-05-16T19:29:00.824Z,16.10
2019-05-16T19:31:31.191Z,15.90
2019-05-16T19:34:01.172Z,15.80
2019-05-16T19:36:31.527Z,15.60
2019-05-16T19:39:01.815Z,15.50
2019-05-16T19:41:33.499Z,15.40
2019-05-16T19:44:03.866Z,15.30
2019-05-16T19:46:34.381Z,15.10
2019-05-16T19:49:06.456Z,15.00
2019-05-16T19:51:36.563Z,14.90
2019-05-16T19:54:07.244Z,14.80
2019-05-16T19:56:38.205Z,14.60
2019-05-16T19:59:08.859Z,14.50
2019-05-16T20:01:39.065Z,14.40
2019-05-16T20:04:09.440Z,14.30
2019-05-16T20:06:39.723Z,14.10
2019-05-16T20:09:10.255Z,14.10
2019-05-16T20:11:40.652Z,13.90
2019-05-16T20:14:11.128Z,13.90
2019-05-16T20:16:41.327Z,13.80
2019-05-16T20:19:11.543Z,13.70
2019-05-16T20:21:41.853Z,13.60
2019-05-16T20:24:12.009Z,13.50
2019-05-16T20:26:41.972Z,13.50
2019-05-16T20:29:12.313Z,13.40
2019-05-16T20:31:42.587Z,13.40
2019-05-16T20:34:12.982Z,13.30
2019-05-16T20:36:43.560Z,13.20
2019-05-16T20:39:13.920Z,13.20
2019-05-16T20:41:44.449Z,13.20
2019-05-16T20:44:14.519Z,13.10
2019-05-16T20:46:46.790Z,13.20
2019-05-16T20:49:16.836Z,13.10
2019-05-16T20:51:49.950Z,13.10
2019-05-16T20:54:18.412Z,13.10
2019-05-16T20:56:49.540Z,13.20
2019-05-16T20:59:19.552Z,13.10
2019-05-16T21:01:49.896Z,13.10
2019-05-16T21:04:20.211Z,13.00
2019-05-16T21:07:00.207Z,13.00
2019-05-16T21:09:22.136Z,13.00
2019-05-16T21:11:52.330Z,13.00
2019-05-16T21:14:22.339Z,13.00
2019-05-16T21:16:52.709Z,12.90
2019-05-16T21:19:22.937Z,12.90
2019-05-16T21:21:53.099Z,12.90
2019-05-16T21:24:23.288Z,12.90
2019-05-16T21:26:53.365Z,12.80
2019-05-16T21:29:23.674Z,12.80
2019-05-16T21:31:53.924Z,12.70
2019-05-16T21:34:23.954Z,12.70
2019-05-16T21:36:54.184Z,12.70
2019-05-16T21:39:26.394Z,12.60
2019-05-16T21:41:56.432Z,12.60
2019-05-16T21:44:29.064Z,12.60
2019-05-16T21:46:59.338Z,12.60
2019-05-16T21:49:29.703Z,12.50
2019-05-16T21:51:59.519Z,12.50
2019-05-16T21:54:29.747Z,12.50
2019-05-16T21:56:59.724Z,12.50
2019-05-16T21:59:30.429Z,12.40
2019-05-16T22:02:02.516Z,12.30
2019-05-16T22:04:33.092Z,12.20
2019-05-16T22:07:03.199Z,12.30
2019-05-16T22:09:33.494Z,12.30
2019-05-16T22:12:03.697Z,12.20
2019-05-16T22:14:37.161Z,12.20
2019-05-16T22:17:07.113Z,12.20
2019-05-16T22:19:37.301Z,12.20
2019-05-16T22:22:07.610Z,12.20
2019-05-16T22:24:37.890Z,12.10
2019-05-16T22:27:08.189Z,12.10
2019-05-16T22:29:38.451Z,12.10
2019-05-16T22:32:09.249Z,12.00
2019-05-16T22:34:40.163Z,11.90
2019-05-16T22:37:11.045Z,11.80
2019-05-16T22:39:41.164Z,11.80
2019-05-16T22:42:11.078Z,11.80
2019-05-16T22:44:41.261Z,11.80
2019-05-16T22:47:11.101Z,11.80
2019-05-16T22:49:41.265Z,11.80
2019-05-16T22:52:11.282Z,11.80
2019-05-16T22:54:41.408Z,11.80
2019-05-16T22:57:11.421Z,11.80
2019-05-16T22:59:41.583Z,11.80
2019-05-16T23:02:12.541Z,11.80
2019-05-16T23:04:42.993Z,11.80
2019-05-16T23:07:13.198Z,11.80
2019-05-16T23:09:43.168Z,11.80
2019-05-16T23:12:13.440Z,11.80
2019-05-16T23:14:43.532Z,11.80
2019-05-16T23:17:13.408Z,11.70
2019-05-16T23:19:43.251Z,11.50
2019-05-16T23:22:13.454Z,11.40
2019-05-16T23:24:43.559Z,11.10
2019-05-16T23:27:13.763Z,10.80
2019-05-16T23:29:43.943Z,10.60
2019-05-16T23:32:14.116Z,10.50
2019-05-16T23:34:43.947Z,10.30
2019-05-16T23:37:14.064Z,10.10
2019-05-16T23:39:44.204Z,10.10
2019-05-16T23:42:14.366Z,10.00
2019-05-16T23:44:44.261Z,9.80
2019-05-16T23:47:16.346Z,9.70
2019-05-16T23:56:47.031Z,9.40
2019-05-16T23:59:17.327Z,9.40
